• Join FlightAware (Why Join?)
  • Login
  • US Flag 
02:03PM EDT


 

Airport Tracker/Info


-or-


 

Live Flight TrackerFlight Track Log ✈ DAL1073 ✈ 09-Oct-2013 ✈ KMSP - KPDX

Flight Track Log - Related Links

Times and Time Zones

All times are in EDT time to prevent confusion due to time zone crossing. See the DAL1073 flight status page for this flight to view local times or setup timezone preferences in your user account.

Time Position Orientation Groundspeed Altitude Reporting Facility
EDT Latitude Longitude Course Direction KTS MPH feet Rate Location/Type
12:55PM 44.8667 -93.1500 276° West 195 224 2,200  Level Minneapolis TRACON
12:55PM 44.8642 -93.0889 93° East 244 281 3,300 2,100 Climbing Minneapolis Center
12:57PM 44.9602 -93.7293 282° West  Level Estimated
12:57PM 44.9289 -93.0258 35° Northeast 310 357 5,600  Level Minneapolis Center
12:58PM 44.9857 -93.8988 277° West  Level Estimated
12:58PM 45.0167 -93.0350 356° North 325 374 8,200  Level Minneapolis Center
12:59PM 45.0111 -94.0685 281° West  Level Estimated
12:59PM 45.0756 -93.1292 312° West 322 371 10,300  Level Minneapolis Center
01:00PM 45.0361 -94.2382 276° West  Level Estimated
01:00PM 45.0903 -93.2611 279° West 349 402 12,100  Level Minneapolis Center
01:01PM 45.0739 -93.4319 262° West 372 428 13,900 1,740 Climbing Minneapolis Center
01:02PM 45.0592 -93.5847 262° West 395 455 15,800 1,980 Climbing Minneapolis Center
01:03PM 45.0439 -93.7400 262° West 402 463 18,100 1,980 Climbing Minneapolis Center
01:04PM 45.0269 -93.8931 261° West 398 458 20,000 1,740 Climbing Minneapolis Center
01:05PM 45.0256 -94.0528 269° West 415 478 21,800 2,100 Climbing Minneapolis Center
01:06PM 45.0556 -94.2475 282° West 426 490 24,400 1,620 Climbing Minneapolis Center
01:07PM 45.0808 -94.4033 283° West 413 475 25,200 960 Climbing Minneapolis Center
01:08PM 45.0997 -94.5708 279° West 425 489 26,400 1,320 Climbing Minneapolis Center
01:09PM 45.1175 -94.7511 278° West 430 495 28,000 720 Climbing Minneapolis Center
01:10PM 45.1339 -94.9128 278° West 422 486 28,000  Level Minneapolis Center
01:11PM 45.1486 -95.0753 277° West 419 482 28,000  Level Minneapolis Center
01:12PM 45.1647 -95.2378 278° West 419 482 28,000  Level Minneapolis Center
01:13PM 45.1803 -95.4019 278° West 422 486 28,000  Level Minneapolis Center
01:14PM 45.1975 -95.5983 277° West 422 486 28,000  Level Minneapolis Center
01:15PM 45.2125 -95.7611 278° West 419 482 28,000  Level Minneapolis Center
01:16PM 45.2283 -95.9244 278° West 421 484 28,000  Level Minneapolis Center
01:17PM 45.2419 -96.0869 277° West 417 480 28,000  Level Minneapolis Center
01:18PM 45.2556 -96.2494 277° West 418 481 28,000  Level Minneapolis Center
01:19PM 45.2733 -96.4444 277° West 418 481 28,000  Level Minneapolis Center
01:20PM 45.2867 -96.6086 277° West 421 484 28,000  Level Minneapolis Center
01:21PM 45.3000 -96.7725 277° West 421 484 28,000  Level Minneapolis Center
01:22PM 45.3125 -96.9367 276° West 422 486 28,000  Level Minneapolis Center
01:23PM 45.3253 -97.1006 276° West 420 483 28,000  Level Minneapolis Center
01:24PM 45.3411 -97.2981 277° West 422 486 28,000  Level Minneapolis Center
01:25PM 45.3533 -97.4622 276° West 420 483 28,000 480 Level Minneapolis Center
01:26PM 45.3661 -97.6264 276° West 421 484 29,100 960 Climbing Minneapolis Center
01:28PM 45.3772 -97.7919 276° West 422 486 30,000 420 Climbing Minneapolis Center
01:29PM 45.3900 -97.9556 276° West 419 482 30,000  Level Minneapolis Center
01:30PM 45.4017 -98.1369 275° West 416 479 30,000  Level Minneapolis Center
01:31PM 45.4139 -98.3000 276° West 417 480 30,000  Level Minneapolis Center
01:32PM 45.4133 -98.4619 270° West 412 474 30,000  Level Minneapolis Center
01:33PM 45.3961 -98.6211 261° West 409 471 30,000  Level Minneapolis Center
01:34PM 45.3825 -98.7811 263° West 409 471 30,000  Level Minneapolis Center
01:35PM 45.3653 -98.9717 263° West 407 468 30,000  Level Minneapolis Center
01:36PM 45.3506 -99.1303 263° West 406 467 30,000  Level Minneapolis Center
01:37PM 45.3344 -99.2886 262° West 406 467 30,000  Level Minneapolis Center
01:38PM 45.3197 -99.4458 262° West 404 465 30,000  Level Minneapolis Center
01:39PM 45.3039 -99.6033 262° West 405 466 30,000  Level Minneapolis Center
01:40PM 45.2889 -99.7592 262° West 404 465 30,000  Level Minneapolis Center
01:41PM 45.2706 -99.9458 262° West 403 464 30,000  Level Minneapolis Center
01:42PM 45.2547 -100.1031 262° West 407 468 30,000  Level Minneapolis Center
01:43PM 45.2389 -100.2614 262° West 410 472 30,000  Level Minneapolis Center
01:44PM 45.2217 -100.4181 261° West 407 468 30,000  Level Minneapolis Center
01:45PM 45.2017 -100.6061 261° West 404 465 30,000  Level Minneapolis Center
01:46PM 45.1853 -100.7644 262° West 407 468 30,000  Level Minneapolis Center
01:47PM 45.1675 -100.9236 261° West 409 471 30,000  Level Minneapolis Center
01:48PM 45.1506 -101.0828 261° West 410 472 30,000  Level Minneapolis Center
01:49PM 45.1333 -101.2422 261° West 410 472 30,000  Level Minneapolis Center
01:50PM 45.1156 -101.3986 261° West 407 468 30,000  Level Minneapolis Center
01:51PM 45.0992 -101.5556 262° West 405 466 30,000  Level Minneapolis Center
01:52PM 45.0789 -101.7433 261° West 403 464 30,000  Level Minneapolis Center
01:53PM 45.1050 -101.9069 283° West 418 481 30,000  Level Minneapolis Center
01:54PM 45.1286 -102.0700 282° West 423 487 30,000  Level Minneapolis Center
01:55PM 45.1508 -102.2322 281° West 420 483 30,000  Level Minneapolis Center
01:56PM 45.1719 -102.3939 281° West 420 483 30,000  Level Minneapolis Center
01:57PM 45.1933 -102.5531 281° West 415 478 30,000  Level Minneapolis Center
01:59PM 45.2172 -102.7433 280° West 410 472 30,000  Level Minneapolis Center
02:00PM 45.2378 -102.9064 280° West 416 479 30,000  Level Minneapolis Center
02:01PM 45.2581 -103.0681 280° West 418 481 30,000  Level Minneapolis Center
02:02PM 45.2778 -103.2283 280° West 415 478 30,000  Level Minneapolis Center
02:03PM 45.2972 -103.3936 280° West 418 481 30,000 -60 Level Minneapolis Center
02:04PM 45.3158 -103.5525 280° West 418 481 29,900  Descending Salt Lake Center
02:05PM 45.3353 -103.7125 280° West 414 476 30,000  Climbing Salt Lake Center
02:06PM 45.3542 -103.8742 279° West 415 478 30,000  Level Salt Lake Center
02:07PM 45.3725 -104.0331 279° West 410 472 30,000 -60 Level Salt Lake Center
02:08PM 45.3903 -104.1939 279° West 411 473 29,900  Descending Salt Lake Center
02:09PM 45.4086 -104.3536 279° West 411 473 30,000  Climbing Salt Lake Center
02:10PM 45.4297 -104.5381 279° West 410 472 30,000  Level Salt Lake Center
02:11PM 45.4481 -104.6964 279° West 407 468 30,000  Level Salt Lake Center
02:12PM 45.4656 -104.8539 279° West 405 466 30,000  Level Salt Lake Center
02:13PM 45.4817 -105.0117 278° West 404 465 30,000  Level Salt Lake Center
02:14PM 45.5008 -105.2017 278° West 406 467 30,000  Level Salt Lake Center
02:15PM 45.5186 -105.3597 279° West 405 466 30,000  Level Salt Lake Center
02:16PM 45.5342 -105.5192 278° West 407 468 30,000  Level Salt Lake Center
02:17PM 45.5514 -105.6794 279° West 409 471 30,000  Level Salt Lake Center
02:18PM 45.5664 -105.8389 278° West 408 470 30,000  Level Salt Lake Center
02:19PM 45.5822 -105.9997 278° West 409 471 30,000  Level Salt Lake Center
02:20PM 45.6017 -106.1933 278° West 413 475 30,000  Level Salt Lake Center
02:21PM 45.6164 -106.3547 277° West 412 474 30,000  Level Salt Lake Center
02:22PM 45.6319 -106.5169 278° West 413 475 30,000  Level Salt Lake Center
02:23PM 45.6436 -106.6772 276° West 409 471 30,000  Level Salt Lake Center
02:24PM 45.6603 -106.8444 278° West 418 481 30,000  Level Salt Lake Center
02:25PM 45.6803 -107.0458 278° West 426 490 30,000  Level Salt Lake Center
02:26PM 45.6944 -107.2122 277° West 425 489 30,000  Level Salt Lake Center
02:27PM 45.7092 -107.3761 277° West 420 483 30,000  Level Salt Lake Center
02:28PM 45.7228 -107.5400 277° West 417 480 30,000 660 Level Salt Lake Center
02:29PM 45.7367 -107.7047 277° West 420 483 31,400 960 Climbing Salt Lake Center
02:30PM 45.7494 -107.8650 277° West 412 474 32,000 240 Climbing Salt Lake Center
02:31PM 45.7644 -108.0558 276° West 406 467 32,000  Level Salt Lake Center
02:33PM 45.7769 -108.2161 276° West 408 470 32,000  Level Salt Lake Center
02:34PM 45.7900 -108.3789 277° West 413 475 32,000  Level Salt Lake Center
02:35PM 45.8036 -108.5436 277° West 417 480 32,000  Level Salt Lake Center
02:36PM 45.8117 -108.7117 274° West 423 487 32,000  Level Salt Lake Center
02:37PM 45.8181 -108.9092 273° West 417 480 32,000  Level Salt Lake Center
02:38PM 45.8225 -109.0742 272° West 416 479 32,000  Level Salt Lake Center
02:39PM 45.8269 -109.2397 272° West 417 480 32,000  Level Salt Lake Center
02:40PM 45.8314 -109.4050 272° West 417 480 32,000  Level Salt Lake Center
02:41PM 45.8344 -109.5711 272° West 419 482 32,000  Level Salt Lake Center
02:42PM 45.8386 -109.7369 272° West 418 481 32,000  Level Salt Lake Center
02:43PM 45.8414 -109.9386 271° West 424 488 32,000  Level Salt Lake Center
02:44PM 45.8444 -110.1047 272° West 420 483 32,000  Level Salt Lake Center
02:45PM 45.8475 -110.2717 272° West 419 482 32,000  Level Salt Lake Center
02:46PM 45.8508 -110.4381 272° West 420 483 32,000  Level Salt Lake Center
02:47PM 45.8544 -110.6147 272° West 415 478 32,000  Level Salt Lake Center
02:48PM 45.8567 -110.8003 271° West 426 490 32,000  Level Salt Lake Center
02:49PM 45.8586 -110.9719 271° West 426 490 32,000  Level Salt Lake Center
02:50PM 45.8606 -111.1436 271° West 427 491 32,000  Level Salt Lake Center
02:51PM 45.8608 -111.3142 270° West 426 490 32,000  Level Salt Lake Center
02:52PM 45.8614 -111.4989 270° West 424 488 32,000  Level Salt Lake Center
02:53PM 45.8619 -111.6703 270° West 424 488 32,000  Level Salt Lake Center
02:54PM 45.8619 -111.8417 270° West 422 486 32,000  Level Salt Lake Center
02:55PM 45.8619 -112.0122 270° West 421 484 32,000  Level Salt Lake Center
02:56PM 45.8622 -112.1822 270° West 420 483 32,000  Level Salt Lake Center
02:57PM 45.8625 -112.3536 270° West 423 487 32,000  Level Salt Lake Center
02:58PM 45.8633 -112.5256 270° West 424 488 32,000  Level Salt Lake Center
02:59PM 45.8631 -112.7097 270° West 422 486 32,000  Level Salt Lake Center
03:00PM 45.8625 -112.8683 270° West 423 487 32,000  Level Salt Lake Center
03:01PM 45.8611 -113.0553 269° West 430 495 32,000  Level Salt Lake Center
03:02PM 45.8631 -113.2281 271° West 427 491 32,000  Level Salt Lake Center
03:03PM 45.8608 -113.4042 269° West 434 499 32,000  Level Salt Lake Center
03:04PM 45.8603 -113.5794 270° West 432 497 32,000 -60 Level Salt Lake Center
03:06PM 45.8611 -113.7453 270° West 424 488 31,900 -60 Descending Salt Lake Center
03:07PM 45.8594 -113.9181 269° West 430 495 31,900  Level Salt Lake Center
03:08PM 45.8567 -114.0908 269° West 433 498 32,000  Climbing Salt Lake Center
03:09PM 45.8556 -114.2650 270° West 437 503 31,900  Descending Salt Lake Center
03:10PM 45.8525 -114.4511 269° West 444 511 32,000  Climbing Salt Lake Center
03:11PM 45.8492 -114.6644 269° West 448 516 32,000  Level Salt Lake Center
03:12PM 45.8461 -114.8442 269° West 451 519 32,000  Level Salt Lake Center
03:13PM 45.8439 -115.0211 269° West 449 517 32,000  Level Salt Lake Center
03:14PM 45.8400 -115.2025 268° West 455 524 32,000  Level Salt Lake Center
03:15PM 45.8364 -115.3833 268° West 456 525 32,000  Level Salt Lake Center
03:16PM 45.8322 -115.5683 268° West 461 531 32,000  Level Salt Lake Center
03:17PM 45.8267 -115.7939 268° West 470 541 32,000  Level Salt Lake Center
03:18PM 45.8208 -115.9844 268° West 475 547 32,000  Level Salt Lake Center
03:19PM 45.8158 -116.1753 268° West 480 552 32,000  Level Salt Lake Center
03:20PM 45.8081 -116.3686 267° West 485 558 32,000  Level Salt Lake Center
03:21PM 45.8025 -116.5628 268° West 488 562 32,000  Level Salt Lake Center
03:22PM 45.7964 -116.7569 267° West 489 563 32,000  Level Salt Lake Center
03:23PM 45.7872 -117.0019 267° West 512 589 32,000  Level Salt Lake Center
03:24PM 45.7792 -117.2064 267° West 517 595 32,000  Level Salt Lake Center
03:25PM 45.7703 -117.4100 266° West 515 593 32,000  Level Salt Lake Center
03:26PM 45.7622 -117.6158 267° West 519 597 32,000  Level Salt Lake Center
03:27PM 45.7531 -117.8311 267° West 518 596 32,000  Level Salt Lake Center
03:28PM 45.7436 -118.0325 266° West 511 588 32,000  Level Salt Lake Center
03:29PM 45.7336 -118.2333 266° West 510 587 32,000  Level Salt Lake Center
03:30PM 45.7219 -118.4928 266° West 505 581 32,000  Level Seattle Center
03:31PM 45.7103 -118.7067 266° West 498 573 32,000  Level Seattle Center
03:32PM 45.7017 -118.9022 266° West 495 570 32,000  Level Seattle Center
03:34PM 45.7014 -119.0919 270° West 483 556 32,000  Level Seattle Center
03:35PM 45.7039 -119.2814 271° West 480 552 32,000  Level Seattle Center
03:36PM 45.7067 -119.4703 271° West 480 552 32,000  Level Seattle Center
03:37PM 45.7089 -119.6592 271° West 478 550 32,000  Level Seattle Center
03:38PM 45.7056 -119.8492 269° West 484 557 32,000  Level Seattle Center
03:39PM 45.6892 -120.0425 263° West 493 567 32,000 -60 Level Seattle Center
03:40PM 45.6686 -120.2731 263° West 492 566 31,900 -840 Descending Seattle Center
03:41PM 45.6511 -120.4600 262° West 484 557 30,300 -1,860 Descending Seattle Center
03:42PM 45.6339 -120.6503 263° West 484 557 28,200 -2,100 Descending Seattle Center
03:43PM 45.6139 -120.8439 262° West 494 568 26,100 -3,000 Descending Seattle Center
03:44PM 45.5961 -121.0300 262° West 481 554 22,100 -4,020 Descending Seattle Center
03:45PM 45.5775 -121.2075 262° West 463 533 18,000 -4,140 Descending Seattle Center
03:45PM 45.5764 -121.2594 268° West 468 539 17,200 -3,840 Descending Seattle Center
03:45PM 45.5669 -121.3472 261° West 424 488 15,400 -3,000 Descending Seattle Center
03:46PM 45.5606 -121.3753 252° West 437 503 14,700 -2,460 Descending Seattle Center
03:46PM 45.5500 -121.5033 263° West 384 442 12,900 -2,100 Descending Seattle Center
03:47PM 45.5456 -121.5286 256° West 401 461 12,600 -1,380 Descending Seattle Center
03:48PM 45.5347 -121.6678 264° West 317 365 11,300 -1,200 Descending Seattle Center
03:48PM 45.5325 -121.6600 112° Southeast 348 400 11,400 -1,500 Climbing Seattle Center
03:48PM 45.5281 -121.7603 266° West 301 346 10,100 -1,980 Descending Seattle Center
03:49PM 45.5261 -121.8031 266° West 309 356 9,400 -1,500 Descending Seattle Center
03:50PM 45.5261 -121.9064 270° West 301 346 8,300 -1,320 Descending Seattle Center
03:50PM 45.5239 -121.9222 259° West 303 349 8,100 -1,440 Descending Seattle Center
03:51PM 45.5219 -122.0225 268° West 290 334 6,900 -1,500 Descending Seattle Center
03:51PM 45.5225 -122.0344 274° West 292 336 6,600 -1,500 Descending Seattle Center
03:52PM 45.5192 -122.1347 267° West 286 329 5,400 -1,320 Descending Seattle Center
03:52PM 45.5206 -122.1492 278° West 293 337 5,300  Descending Seattle Center
03:53PM 45.4833 -122.2239 235° Southwest 254 292 5,400 -120 Climbing Seattle Center
03:53PM 45.4786 -122.2344 237° Southwest 271 312 5,200 -1,680 Descending Seattle Center
03:54PM 45.4453 -122.2919 230° Southwest 223 257 3,900 -1,620 Descending Seattle Center
03:54PM 45.4386 -122.3050 234° Southwest 241 277 3,600 -420 Descending Seattle Center
03:55PM 45.4686 -122.3533 312° West 221 254 3,500 -120 Descending Seattle Center
03:55PM 45.4811 -122.3578 346° North 227 261 3,500 -420 Level Seattle Center
03:56PM 45.5206 -122.4058 320° Northwest 221 254 3,100 -720 Descending Seattle Center
03:56PM 45.5256 -122.4153 307° West 227 261 2,800 -1,380 Descending Seattle Center
03:57PM 45.5475 -122.4750 298° West 183 211 1,700 -1,380 Descending Seattle Center
03:57PM 45.5508 -122.4833 300° West 200 230 1,400 -1,020 Descending Seattle Center
03:58PM 45.5697 -122.5306 300° West 159 183 700 -840 Descending Seattle Center
03:58PM 45.5736 -122.5392 303° West 185 213 600 -480 Descending Seattle Center
03:59PM 45.5992 -122.6022 300° West 179 206 100 -540 Descending Seattle Center